createdAt,value
2018-08-24T00:02:20.532Z,21.80
2018-08-24T00:04:48.904Z,21.80
2018-08-24T00:07:17.472Z,21.90
2018-08-24T00:09:47.209Z,21.90
2018-08-24T00:12:15.729Z,21.70
2018-08-24T00:14:44.096Z,21.70
2018-08-24T00:17:17.840Z,21.80
2018-08-24T00:19:46.183Z,21.80
2018-08-24T00:22:14.625Z,21.80
2018-08-24T00:24:43.037Z,21.80
2018-08-24T00:27:11.513Z,21.80
2018-08-24T00:29:40.001Z,21.80
2018-08-24T00:32:08.543Z,21.80
2018-08-24T00:34:36.973Z,21.80
2018-08-24T00:37:06.383Z,21.90
2018-08-24T00:39:34.803Z,21.90
2018-08-24T00:42:03.213Z,21.90
2018-08-24T00:44:31.608Z,21.90
2018-08-24T00:46:59.978Z,21.90
2018-08-24T00:49:28.374Z,21.70
2018-08-24T00:51:56.864Z,21.80
2018-08-24T00:54:25.390Z,21.80
2018-08-24T00:56:53.761Z,21.80
2018-08-24T00:59:22.239Z,21.90
2018-08-24T01:01:50.712Z,22.00
2018-08-24T01:04:24.448Z,22.00
2018-08-24T01:06:52.851Z,22.00
2018-08-24T01:09:21.173Z,22.00
2018-08-24T01:11:54.905Z,22.00
2018-08-24T01:14:23.247Z,22.00
2018-08-24T01:16:56.888Z,22.10
2018-08-24T01:19:25.299Z,22.20
2018-08-24T01:21:53.665Z,22.10
2018-08-24T01:24:26.349Z,22.10
2018-08-24T01:27:03.753Z,22.00
2018-08-24T01:29:34.580Z,22.00
2018-08-24T01:32:03.765Z,21.90
2018-08-24T01:34:32.727Z,21.90
2018-08-24T01:37:01.148Z,21.80
2018-08-24T01:39:30.056Z,21.80
2018-08-24T01:41:58.710Z,21.70
2018-08-24T01:44:27.420Z,21.80
2018-08-24T01:46:55.944Z,21.70
2018-08-24T01:49:24.540Z,21.70
2018-08-24T01:51:52.917Z,21.70
2018-08-24T01:54:21.356Z,21.60
2018-08-24T01:56:49.764Z,21.60
2018-08-24T01:59:18.180Z,21.50
2018-08-24T02:01:46.646Z,21.50
2018-08-24T02:04:15.133Z,21.50
2018-08-24T02:06:43.624Z,21.50
2018-08-24T02:09:13.085Z,21.60
2018-08-24T02:11:41.566Z,21.60
2018-08-24T02:14:15.516Z,21.50
2018-08-24T02:16:44.084Z,21.50
2018-08-24T02:19:17.127Z,21.40
2018-08-24T02:21:50.792Z,21.30
2018-08-24T02:24:19.232Z,21.20
2018-08-24T02:26:47.628Z,21.20
2018-08-24T02:29:16.025Z,21.30
2018-08-24T02:31:49.992Z,21.20
2018-08-24T02:34:18.415Z,21.10
2018-08-24T02:36:46.811Z,21.00
2018-08-24T02:39:19.807Z,21.00
2018-08-24T02:41:48.422Z,20.90
2018-08-24T02:44:16.832Z,20.90
2018-08-24T02:46:45.327Z,20.90
2018-08-24T02:49:13.812Z,20.90
2018-08-24T02:51:42.444Z,20.90
2018-08-24T02:54:10.937Z,20.90
2018-08-24T02:56:39.403Z,20.80
2018-08-24T02:59:07.995Z,20.80
2018-08-24T03:01:36.433Z,20.70
2018-08-24T03:04:04.839Z,20.70
2018-08-24T03:06:33.324Z,20.70
2018-08-24T03:09:01.730Z,20.60
2018-08-24T03:11:30.866Z,20.50
2018-08-24T03:13:59.379Z,20.40
2018-08-24T03:16:27.787Z,20.40
2018-08-24T03:18:56.188Z,20.40
2018-08-24T03:21:25.050Z,20.30
2018-08-24T03:23:53.471Z,20.40
2018-08-24T03:26:21.942Z,20.40
2018-08-24T03:28:50.293Z,20.40
2018-08-24T03:31:18.659Z,20.50
2018-08-24T03:33:47.112Z,20.50
2018-08-24T03:36:16.498Z,20.50
2018-08-24T03:38:44.876Z,20.40
2018-08-24T03:41:13.355Z,20.40
2018-08-24T03:43:41.860Z,20.30
2018-08-24T03:46:10.353Z,20.30
2018-08-24T03:48:39.069Z,20.30
2018-08-24T03:51:07.591Z,20.20
2018-08-24T03:53:36.204Z,20.30
2018-08-24T03:56:04.580Z,20.30
2018-08-24T03:58:33.031Z,20.40
2018-08-24T04:01:01.450Z,20.40
2018-08-24T04:03:30.462Z,20.40
2018-08-24T04:05:58.870Z,20.40
2018-08-24T04:08:27.284Z,20.50
2018-08-24T04:10:55.651Z,20.50
2018-08-24T04:13:24.042Z,20.50
2018-08-24T04:15:52.483Z,20.50
2018-08-24T04:18:20.836Z,20.50
2018-08-24T04:20:49.300Z,20.60
2018-08-24T04:23:17.652Z,20.60
2018-08-24T04:25:46.120Z,20.60
2018-08-24T04:28:14.924Z,20.60
2018-08-24T04:30:43.338Z,20.50
2018-08-24T04:33:11.793Z,20.60
2018-08-24T04:35:40.263Z,20.50
2018-08-24T04:38:08.766Z,20.60
2018-08-24T04:40:37.310Z,20.60
2018-08-24T04:43:06.028Z,20.60
2018-08-24T04:45:34.460Z,20.70
2018-08-24T04:48:02.866Z,20.60
2018-08-24T04:50:31.281Z,20.60
2018-08-24T04:52:59.681Z,20.60
2018-08-24T04:55:28.074Z,20.70
2018-08-24T04:57:56.501Z,20.70
2018-08-24T05:00:24.914Z,20.70
2018-08-24T05:02:53.368Z,20.70
2018-08-24T05:05:21.788Z,20.70
2018-08-24T05:07:50.156Z,20.70
2018-08-24T05:10:18.767Z,20.70
2018-08-24T05:12:47.215Z,20.70
2018-08-24T05:15:15.754Z,20.70
2018-08-24T05:17:44.544Z,20.80
2018-08-24T05:20:13.139Z,20.80
2018-08-24T05:22:41.794Z,20.90
2018-08-24T05:25:10.706Z,21.00
2018-08-24T05:27:40.278Z,21.00
2018-08-24T05:30:09.171Z,21.00
2018-08-24T05:32:37.725Z,21.00
2018-08-24T05:35:06.556Z,21.10
2018-08-24T05:37:35.048Z,21.10
2018-08-24T05:40:03.484Z,21.20
2018-08-24T05:42:31.962Z,21.20
2018-08-24T05:45:00.363Z,21.20
2018-08-24T05:47:28.761Z,21.30
2018-08-24T05:49:57.143Z,21.40
2018-08-24T05:52:25.656Z,21.40
2018-08-24T05:54:54.083Z,21.40
2018-08-24T05:57:22.514Z,21.30
2018-08-24T05:59:50.905Z,21.20
2018-08-24T06:02:19.376Z,21.20
2018-08-24T06:04:47.836Z,21.20
2018-08-24T06:07:16.276Z,21.20
2018-08-24T06:09:45.114Z,21.20
2018-08-24T06:12:13.636Z,21.20
2018-08-24T06:14:42.204Z,21.20
2018-08-24T06:17:16.218Z,21.30
2018-08-24T06:19:44.605Z,21.50
2018-08-24T06:22:13.309Z,21.70
2018-08-24T06:24:42.018Z,21.70
2018-08-24T06:27:11.715Z,21.70
2018-08-24T06:29:40.515Z,21.80
2018-08-24T06:32:09.303Z,21.80
2018-08-24T06:34:37.717Z,21.70
2018-08-24T06:37:06.299Z,21.70
2018-08-24T06:39:34.727Z,21.70
2018-08-24T06:42:03.194Z,21.70
2018-08-24T06:44:31.637Z,21.60
2018-08-24T06:47:00.008Z,21.60
2018-08-24T06:49:28.426Z,21.60
2018-08-24T06:51:56.883Z,21.60
2018-08-24T06:54:26.036Z,21.60
2018-08-24T06:56:54.411Z,21.60
2018-08-24T06:59:23.036Z,21.70
2018-08-24T07:01:51.408Z,21.70
2018-08-24T07:04:19.925Z,21.70
2018-08-24T07:06:48.436Z,21.60
2018-08-24T07:09:16.960Z,21.60
2018-08-24T07:11:45.393Z,21.50
2018-08-24T07:14:14.499Z,21.50
2018-08-24T07:16:43.561Z,21.40
2018-08-24T07:19:13.013Z,21.40
2018-08-24T07:21:42.232Z,21.30
2018-08-24T07:24:11.866Z,21.30
2018-08-24T07:26:41.484Z,21.30
2018-08-24T07:29:11.169Z,21.20
2018-08-24T07:31:40.346Z,21.20
2018-08-24T07:34:09.425Z,21.30
2018-08-24T07:36:38.683Z,21.20
2018-08-24T07:39:11.114Z,21.20
2018-08-24T07:41:40.648Z,21.20
2018-08-24T07:44:10.675Z,21.20
2018-08-24T07:46:40.268Z,21.20
2018-08-24T07:49:09.204Z,21.20
2018-08-24T07:51:38.676Z,21.20
2018-08-24T07:54:07.109Z,21.10
2018-08-24T07:56:35.741Z,21.10
2018-08-24T07:59:04.486Z,21.10
2018-08-24T08:01:32.872Z,21.10
2018-08-24T08:04:02.805Z,21.00
2018-08-24T08:06:31.133Z,21.00
2018-08-24T08:09:00.088Z,21.00
2018-08-24T08:11:35.527Z,20.90
2018-08-24T08:14:04.112Z,21.00
2018-08-24T08:16:32.524Z,21.00
2018-08-24T08:19:00.955Z,21.10
2018-08-24T08:21:30.226Z,21.00
2018-08-24T08:23:59.173Z,21.00
2018-08-24T08:26:28.105Z,21.00
2018-08-24T08:28:57.007Z,21.00
2018-08-24T08:31:26.049Z,21.00
2018-08-24T08:33:54.856Z,20.90
2018-08-24T08:36:23.876Z,21.00
2018-08-24T08:38:52.794Z,21.00
2018-08-24T08:41:21.235Z,21.00
2018-08-24T08:43:49.751Z,20.90
2018-08-24T08:46:18.957Z,20.80
2018-08-24T08:48:48.256Z,20.80
2018-08-24T08:51:17.267Z,20.70
2018-08-24T08:53:46.036Z,20.70
2018-08-24T08:56:14.416Z,20.60
2018-08-24T08:58:42.986Z,20.80
2018-08-24T09:01:12.258Z,21.00
2018-08-24T09:03:40.848Z,21.10
2018-08-24T09:06:09.652Z,21.10
2018-08-24T09:08:38.161Z,21.00
2018-08-24T09:11:06.757Z,21.10
2018-08-24T09:13:35.169Z,21.10
2018-08-24T09:16:04.056Z,21.10
2018-08-24T09:18:37.756Z,21.00
2018-08-24T09:21:11.895Z,21.10
2018-08-24T09:23:46.097Z,21.10
2018-08-24T09:27:24.565Z,21.10
2018-08-24T09:29:54.511Z,21.10
2018-08-24T09:32:23.336Z,21.10
2018-08-24T09:34:52.490Z,21.00
2018-08-24T09:37:26.986Z,20.80
2018-08-24T09:39:55.616Z,20.80
2018-08-24T09:42:24.382Z,20.80
2018-08-24T09:44:53.254Z,20.80
2018-08-24T09:47:27.315Z,20.80
2018-08-24T09:50:00.484Z,20.90
2018-08-24T09:52:29.360Z,20.90
2018-08-24T09:54:57.999Z,21.00
2018-08-24T09:57:26.984Z,21.00
2018-08-24T09:59:56.050Z,21.10
2018-08-24T10:02:26.757Z,21.30
2018-08-24T10:05:01.196Z,21.40
2018-08-24T10:07:32.608Z,21.50
2018-08-24T10:10:03.025Z,21.60
2018-08-24T10:12:36.488Z,21.60
2018-08-24T10:15:07.201Z,21.60
2018-08-24T10:17:36.461Z,21.80
2018-08-24T10:20:05.921Z,21.80
2018-08-24T10:22:35.151Z,22.00
2018-08-24T10:25:04.218Z,22.00
2018-08-24T10:27:33.311Z,22.20
2018-08-24T10:30:02.123Z,22.40
2018-08-24T10:32:31.146Z,22.60
2018-08-24T10:35:00.509Z,22.80
2018-08-24T10:37:29.604Z,22.90
2018-08-24T10:40:00.032Z,22.90
2018-08-24T10:42:29.165Z,22.80
2018-08-24T10:44:58.004Z,22.80
2018-08-24T10:47:27.077Z,22.80
2018-08-24T10:49:55.830Z,22.80
2018-08-24T10:52:25.095Z,22.80
2018-08-24T10:54:53.969Z,22.90
2018-08-24T10:57:23.213Z,23.00
2018-08-24T10:59:52.663Z,23.00
2018-08-24T11:02:21.393Z,23.10
2018-08-24T11:04:50.323Z,23.10
2018-08-24T11:07:19.155Z,23.20
2018-08-24T11:09:48.033Z,23.20
2018-08-24T11:12:16.935Z,23.20
2018-08-24T11:14:46.091Z,23.10
2018-08-24T11:17:15.154Z,23.10
2018-08-24T11:19:43.983Z,23.20
2018-08-24T11:22:13.510Z,23.40
2018-08-24T11:24:42.641Z,23.50
2018-08-24T11:27:11.327Z,23.60
2018-08-24T11:29:40.319Z,23.80
2018-08-24T11:32:09.674Z,23.90
2018-08-24T11:34:38.730Z,23.90
2018-08-24T11:37:08.689Z,23.90
2018-08-24T11:39:37.171Z,23.90
2018-08-24T11:42:05.652Z,23.90
2018-08-24T11:44:34.248Z,24.00
2018-08-24T11:47:02.692Z,24.00
2018-08-24T11:49:31.826Z,24.10
2018-08-24T11:52:00.310Z,24.10
2018-08-24T11:54:28.741Z,24.00
2018-08-24T11:56:57.602Z,23.90
2018-08-24T11:59:26.559Z,23.70
2018-08-24T12:01:55.417Z,23.70
2018-08-24T12:04:23.816Z,23.60
2018-08-24T12:06:52.223Z,23.30
2018-08-24T12:09:20.645Z,23.10
2018-08-24T12:11:49.118Z,23.00
2018-08-24T12:14:17.657Z,22.90
2018-08-24T12:16:46.116Z,23.00
2018-08-24T12:19:14.551Z,22.90
2018-08-24T12:21:43.691Z,23.00
2018-08-24T12:24:13.007Z,23.20
2018-08-24T12:26:42.382Z,23.40
2018-08-24T12:29:13.038Z,23.50
2018-08-24T12:31:42.256Z,23.50
2018-08-24T12:34:11.413Z,23.60
2018-08-24T12:36:41.525Z,23.80
2018-08-24T12:39:12.799Z,23.90
2018-08-24T12:41:42.789Z,23.90
2018-08-24T12:44:12.096Z,24.00
2018-08-24T12:46:41.781Z,24.10
2018-08-24T12:49:10.754Z,24.30
2018-08-24T12:51:40.456Z,24.50
2018-08-24T12:54:09.506Z,24.40
2018-08-24T12:56:39.074Z,24.20
2018-08-24T12:59:08.295Z,24.10
2018-08-24T13:01:37.162Z,24.00
2018-08-24T13:04:06.029Z,23.90
2018-08-24T13:06:34.943Z,24.00
2018-08-24T13:09:04.709Z,24.00
2018-08-24T13:11:33.742Z,24.00
2018-08-24T13:14:02.841Z,24.10
2018-08-24T13:16:31.751Z,24.00
2018-08-24T13:19:00.931Z,23.90
2018-08-24T13:21:30.051Z,23.90
2018-08-24T13:23:58.703Z,23.80
2018-08-24T13:26:27.146Z,23.60
2018-08-24T13:28:56.257Z,23.50
2018-08-24T13:31:25.501Z,23.50
2018-08-24T13:33:54.508Z,23.40
2018-08-24T13:36:23.887Z,23.50
2018-08-24T13:38:54.269Z,23.50
2018-08-24T13:41:23.257Z,23.60
2018-08-24T13:43:58.774Z,23.60
2018-08-24T13:46:27.747Z,23.50
2018-08-24T13:48:56.503Z,23.60
2018-08-24T13:51:25.431Z,23.50
2018-08-24T13:53:54.048Z,23.60
2018-08-24T13:56:22.492Z,23.50
2018-08-24T13:58:51.654Z,23.60
2018-08-24T14:01:20.879Z,23.60
2018-08-24T14:03:49.476Z,23.60
2018-08-24T14:06:17.947Z,23.70
2018-08-24T14:08:46.445Z,23.70
2018-08-24T14:11:14.896Z,23.80
2018-08-24T14:13:43.410Z,23.90
2018-08-24T14:16:11.956Z,24.10
2018-08-24T14:18:40.698Z,24.20
2018-08-24T14:21:09.713Z,24.20
2018-08-24T14:23:38.161Z,24.10
2018-08-24T14:26:06.633Z,24.10
2018-08-24T14:28:35.105Z,23.90
2018-08-24T14:31:03.580Z,23.80
2018-08-24T14:33:32.027Z,23.80
2018-08-24T14:36:00.463Z,23.70
2018-08-24T14:38:28.927Z,23.50
2018-08-24T14:40:57.348Z,23.40
2018-08-24T14:43:25.897Z,23.40
2018-08-24T14:45:54.324Z,23.50
2018-08-24T14:48:22.773Z,23.40
2018-08-24T14:50:51.192Z,23.40
2018-08-24T14:53:19.779Z,23.40
2018-08-24T14:55:48.214Z,23.40
2018-08-24T14:58:16.649Z,23.40
2018-08-24T15:00:45.248Z,23.40
2018-08-24T15:03:13.729Z,23.40
2018-08-24T15:05:42.149Z,23.30
2018-08-24T15:08:10.657Z,23.30
2018-08-24T15:10:39.218Z,23.20
2018-08-24T15:13:07.719Z,23.30
2018-08-24T15:15:36.796Z,23.20
2018-08-24T15:18:05.298Z,23.20
2018-08-24T15:20:33.815Z,23.20
2018-08-24T15:23:02.559Z,23.30
2018-08-24T15:25:30.985Z,23.30
2018-08-24T15:27:59.946Z,23.20
2018-08-24T15:30:28.413Z,23.20
2018-08-24T15:32:56.853Z,23.10
2018-08-24T15:35:25.252Z,23.10
2018-08-24T15:37:53.676Z,23.00
2018-08-24T15:40:22.258Z,23.00
2018-08-24T15:42:50.677Z,23.00
2018-08-24T15:45:19.204Z,23.10
2018-08-24T15:47:47.629Z,23.10
2018-08-24T15:53:29.201Z,23.00
2018-08-24T15:55:58.403Z,23.00
2018-08-24T15:58:26.815Z,22.80
2018-08-24T16:00:55.245Z,22.80
2018-08-24T16:03:23.860Z,22.80
2018-08-24T16:05:52.240Z,22.70
2018-08-24T16:08:38.169Z,22.70
2018-08-24T16:11:06.976Z,22.80
2018-08-24T16:13:35.479Z,22.80
2018-08-24T16:16:03.932Z,22.80
2018-08-24T16:18:32.381Z,22.70
2018-08-24T16:21:00.820Z,22.80
2018-08-24T16:23:29.261Z,22.80
2018-08-24T16:25:57.807Z,22.70
2018-08-24T16:28:26.244Z,22.80
2018-08-24T16:30:54.740Z,22.80
2018-08-24T16:33:23.124Z,22.90
2018-08-24T16:35:51.632Z,22.80
2018-08-24T16:38:20.038Z,22.80
2018-08-24T16:40:48.565Z,22.80
2018-08-24T16:43:17.060Z,22.70
2018-08-24T16:45:45.477Z,22.60
2018-08-24T16:48:14.023Z,22.60
2018-08-24T16:50:42.669Z,22.60
2018-08-24T16:53:11.398Z,22.50
2018-08-24T16:55:39.989Z,22.50
2018-08-24T16:58:08.616Z,22.50
2018-08-24T17:00:37.104Z,22.40
2018-08-24T17:03:05.636Z,22.40
2018-08-24T17:05:34.056Z,22.40
2018-08-24T17:08:09.268Z,22.30
2018-08-24T17:10:38.717Z,22.30
2018-08-24T17:13:13.651Z,22.30
2018-08-24T17:15:42.172Z,22.30
2018-08-24T17:18:10.913Z,22.30
2018-08-24T17:20:39.768Z,22.40
2018-08-24T17:23:08.284Z,22.30
2018-08-24T17:25:37.043Z,22.30
2018-08-24T17:28:05.489Z,22.20
2018-08-24T17:30:33.954Z,22.10
2018-08-24T17:33:02.360Z,22.10
2018-08-24T17:35:30.941Z,22.00
2018-08-24T17:37:59.293Z,22.00
2018-08-24T17:40:27.707Z,22.00
2018-08-24T17:42:56.731Z,21.90
2018-08-24T17:45:25.806Z,21.90
2018-08-24T17:47:55.467Z,21.80
2018-08-24T17:50:24.518Z,21.80
2018-08-24T17:52:53.770Z,21.70
2018-08-24T17:55:22.889Z,21.70
2018-08-24T17:57:51.946Z,21.70
2018-08-24T18:00:21.266Z,21.60
2018-08-24T18:02:50.435Z,21.60
2018-08-24T18:05:19.382Z,21.60
2018-08-24T18:07:48.417Z,21.60
2018-08-24T18:10:17.747Z,21.60
2018-08-24T18:12:46.997Z,21.60
2018-08-24T18:15:16.360Z,21.60
2018-08-24T18:17:45.482Z,21.60
2018-08-24T18:20:15.158Z,21.60
2018-08-24T18:22:44.310Z,21.60
2018-08-24T18:25:13.367Z,21.60
2018-08-24T18:27:42.423Z,21.50
2018-08-24T18:30:12.277Z,21.50
2018-08-24T18:32:42.293Z,21.50
2018-08-24T18:35:11.681Z,21.50
2018-08-24T18:37:40.779Z,21.40
2018-08-24T18:40:09.684Z,21.40
2018-08-24T18:42:38.276Z,21.30
2018-08-24T18:45:06.881Z,21.30
2018-08-24T18:47:35.285Z,21.20
2018-08-24T18:50:03.809Z,21.10
2018-08-24T18:52:32.265Z,21.10
2018-08-24T18:55:00.811Z,21.00
2018-08-24T18:57:29.187Z,21.00
2018-08-24T18:59:58.093Z,21.00
2018-08-24T19:02:26.886Z,21.00
2018-08-24T19:04:55.370Z,20.90
2018-08-24T19:07:25.524Z,20.90
2018-08-24T19:09:54.608Z,20.90
2018-08-24T19:12:28.369Z,20.90
2018-08-24T19:14:58.548Z,20.90
2018-08-24T19:17:32.654Z,20.90
2018-08-24T19:20:06.691Z,20.90
2018-08-24T19:22:35.639Z,20.90
2018-08-24T19:25:05.334Z,20.90
2018-08-24T19:27:39.627Z,20.90
2018-08-24T19:30:14.099Z,20.90
2018-08-24T19:32:43.894Z,20.90
2018-08-24T19:35:12.952Z,20.80
2018-08-24T19:37:41.649Z,20.90
2018-08-24T19:40:15.737Z,20.90
2018-08-24T19:42:44.210Z,20.80
2018-08-24T19:45:13.314Z,20.80
2018-08-24T19:47:47.454Z,20.80
2018-08-24T19:50:16.049Z,20.80
2018-08-24T19:52:44.780Z,20.80
2018-08-24T19:55:14.508Z,20.80
2018-08-24T19:57:48.871Z,20.70
2018-08-24T20:00:17.252Z,20.70
2018-08-24T20:02:46.045Z,20.70
2018-08-24T20:05:15.063Z,20.60
2018-08-24T20:07:49.273Z,20.60
2018-08-24T20:10:18.624Z,20.60
2018-08-24T20:12:48.199Z,20.60
2018-08-24T20:15:22.089Z,20.60
2018-08-24T20:17:51.203Z,20.60
2018-08-24T20:20:19.676Z,20.60
2018-08-24T20:22:48.332Z,20.60
2018-08-24T20:25:16.771Z,20.60
2018-08-24T20:27:45.231Z,20.60
2018-08-24T20:30:13.960Z,20.50
2018-08-24T20:32:42.953Z,20.50
2018-08-24T20:35:11.957Z,20.50
2018-08-24T20:37:41.026Z,20.60
2018-08-24T20:40:10.039Z,20.60
2018-08-24T20:42:38.633Z,20.60
2018-08-24T20:45:07.300Z,20.60
2018-08-24T20:47:35.892Z,20.50
2018-08-24T20:50:04.485Z,20.50
2018-08-24T20:52:32.921Z,20.50
2018-08-24T20:55:01.430Z,20.40
2018-08-24T20:57:29.754Z,20.40
2018-08-24T20:59:58.254Z,20.40
2018-08-24T21:02:26.739Z,20.40
2018-08-24T21:04:55.255Z,20.30
2018-08-24T21:07:23.932Z,20.30
2018-08-24T21:09:52.336Z,20.30
2018-08-24T21:12:20.758Z,20.30
2018-08-24T21:14:49.254Z,20.30
2018-08-24T21:17:17.645Z,20.30
2018-08-24T21:19:46.161Z,20.30
2018-08-24T21:22:14.600Z,20.30
2018-08-24T21:24:43.183Z,20.30
2018-08-24T21:27:11.770Z,20.30
2018-08-24T21:29:40.573Z,20.20
2018-08-24T21:32:09.724Z,20.20
2018-08-24T21:34:38.482Z,20.20
2018-08-24T21:37:08.453Z,20.20
2018-08-24T21:39:36.993Z,20.20
2018-08-24T21:42:08.362Z,20.20
2018-08-24T21:44:37.114Z,20.20
2018-08-24T21:47:07.244Z,20.10
2018-08-24T21:49:36.249Z,20.10
2018-08-24T21:54:52.946Z,20.00
2018-08-24T21:57:23.930Z,19.90
2018-08-24T22:02:35.065Z,19.90
2018-08-24T22:05:04.936Z,19.90
2018-08-24T22:07:33.604Z,19.90
2018-08-24T22:10:02.898Z,19.80
2018-08-24T22:12:32.555Z,19.80
2018-08-24T22:15:01.010Z,19.80
2018-08-24T22:17:29.433Z,19.80
2018-08-24T22:19:57.852Z,19.80
2018-08-24T22:22:26.256Z,19.80
2018-08-24T22:24:54.652Z,19.80
2018-08-24T22:27:23.300Z,19.70
2018-08-24T22:29:51.889Z,19.70
2018-08-24T22:32:20.312Z,19.70
2018-08-24T22:34:48.759Z,19.60
2018-08-24T22:37:17.272Z,19.60
2018-08-24T22:39:46.360Z,19.50
2018-08-24T22:42:15.040Z,19.50
2018-08-24T22:44:43.589Z,19.50
2018-08-24T22:47:12.277Z,19.50
2018-08-24T22:49:41.319Z,19.50
2018-08-24T22:52:09.893Z,19.40
2018-08-24T22:54:38.676Z,19.40
2018-08-24T22:57:07.580Z,19.40
2018-08-24T22:59:36.927Z,19.40
2018-08-24T23:02:05.467Z,19.30
2018-08-24T23:04:33.882Z,19.30
2018-08-24T23:07:02.321Z,19.20
2018-08-24T23:09:30.896Z,19.20
2018-08-24T23:11:59.464Z,19.10
2018-08-24T23:14:28.280Z,19.00
2018-08-24T23:16:56.716Z,19.00
2018-08-24T23:19:25.200Z,18.90
2018-08-24T23:21:53.630Z,18.90
2018-08-24T23:24:22.160Z,18.90
2018-08-24T23:26:50.568Z,18.80
2018-08-24T23:29:19.049Z,18.80
2018-08-24T23:31:47.432Z,18.80
2018-08-24T23:34:15.904Z,18.80
2018-08-24T23:36:44.544Z,18.80
2018-08-24T23:39:13.186Z,18.70
2018-08-24T23:41:41.892Z,18.70
2018-08-24T23:44:10.745Z,18.70
2018-08-24T23:46:39.605Z,18.70
2018-08-24T23:49:08.525Z,18.70
2018-08-24T23:51:37.253Z,18.70
2018-08-24T23:54:05.692Z,18.70
2018-08-24T23:56:34.027Z,18.60
2018-08-24T23:59:02.484Z,18.70
